^^
Saratoga-Weather Station Historical Data
Daily Summary for February 11, 2021 Units:  Both    English   Metric
Daily Weekly Monthly Yearly Custom
  High: Low: Average:
Temperature: 75.9 °F /  24.4 °C 56.1 °F /  13.4 °C 64.4 °F /  18 °C
Dew Point: 62.1 °F /  16.7 °C 54.5 °F /  12.5 °C 58.1 °F /  14.5 °C
Humidity: 95% 57% 82%
Wind Speed: 6.9mph /  11.1km/h - 1.1mph /  1.8km/h
Wind Gust: 10mph /  16.1km/h - -
Wind- - WSW
Pressure: 30 in /  1016.9 hPa 29.9 in /  1013.2 hPa -
Precipitation: 0 in /  0.0 mm    
Historical Graphs
 
 
Tabular Data for February 11, 2021
Time Temperature Dew Point Pressure Wind Wind Speed Wind Gust Humidity Rainfall Rate (Hourly) solar
00:02 60.3 °F /  15.7 °C 58.5 °F /  14.7 °C 30in /  1014.9hPa Calm     94% 0in /  0.0mm 0 W/m2
00:07 60.3 °F /  15.7 °C 58.5 °F /  14.7 °C 30in /  1014.9hPa West 2mph /  3.2km/h 4mph /  6.4km/h 94% 0in /  0.0mm 0 W/m2
00:12 60.3 °F /  15.7 °C 58.8 °F /  14.9 °C 30in /  1015.2hPa West 2mph /  3.2km/h 4mph /  6.4km/h 95% 0in /  0.0mm 0 W/m2
00:17 60.3 °F /  15.7 °C 58.8 °F /  14.9 °C 30in /  1015.2hPa WSW 2mph /  3.2km/h 6mph /  9.7km/h 95% 0in /  0.0mm 0 W/m2
00:22 60.3 °F /  15.7 °C 58.8 °F /  14.9 °C 30in /  1014.9hPa West 2mph /  3.2km/h 6mph /  9.7km/h 95% 0in /  0.0mm 0 W/m2
00:27 60.4 °F /  15.8 °C 59 °F /  15 °C 30in /  1015.2hPa West 2mph /  3.2km/h 3mph /  4.8km/h 95% 0in /  0.0mm 0 W/m2
00:32 60.4 °F /  15.8 °C 58.6 °F /  14.8 °C 30in /  1015.2hPa WNW 2mph /  3.2km/h 2mph /  3.2km/h 94% 0in /  0.0mm 0 W/m2
00:37 60.4 °F /  15.8 °C 58.6 °F /  14.8 °C 30in /  1015.2hPa WNW 0.9mph /  1.4km/h 4mph /  6.4km/h 94% 0in /  0.0mm 0 W/m2
00:42 60.4 °F /  15.8 °C 58.6 °F /  14.8 °C 30in /  1015.2hPa WNW 2mph /  3.2km/h 3mph /  4.8km/h 94% 0in /  0.0mm 0 W/m2
00:47 60.4 °F /  15.8 °C 58.6 °F /  14.8 °C 30in /  1015.2hPa West 2mph /  3.2km/h 3mph /  4.8km/h 94% 0in /  0.0mm 0 W/m2
00:52 60.3 °F /  15.7 °C 58.5 °F /  14.7 °C 30in /  1015.2hPa West 2.9mph /  4.7km/h 4mph /  6.4km/h 94% 0in /  0.0mm 0 W/m2
00:57 60.3 °F /  15.7 °C 58.5 °F /  14.7 °C 30in /  1015.2hPa West 2.9mph /  4.7km/h 6mph /  9.7km/h 94% 0in /  0.0mm 0 W/m2
01:02 60.3 °F /  15.7 °C 58.5 °F /  14.7 °C 30in /  1014.9hPa WSW 2.9mph /  4.7km/h 7mph /  11.3km/h 94% 0in /  0.0mm 0 W/m2
01:07 60.3 °F /  15.7 °C 58.5 °F /  14.7 °C 30in /  1014.9hPa WNW 2mph /  3.2km/h 4mph /  6.4km/h 94% 0in /  0.0mm 0 W/m2
01:12 60.1 °F /  15.6 °C 58.3 °F /  14.6 °C 30in /  1015.2hPa WNW 4mph /  6.4km/h 9mph /  14.5km/h 94% 0in /  0.0mm 0 W/m2
01:17 60.1 °F /  15.6 °C 58.3 °F /  14.6 °C 30in /  1014.9hPa West 2mph /  3.2km/h 4mph /  6.4km/h 94% 0in /  0.0mm 0 W/m2
01:22 59.9 °F /  15.5 °C 58.1 °F /  14.5 °C 30in /  1015.2hPa West 2.9mph /  4.7km/h 6mph /  9.7km/h 94% 0in /  0.0mm 0 W/m2
01:27 59.7 °F /  15.4 °C 57.9 °F /  14.4 °C 30in /  1015.2hPa West 6.9mph /  11.1km/h 8mph /  12.9km/h 94% 0in /  0.0mm 0 W/m2
01:32 59.5 °F /  15.3 °C 57.7 °F /  14.3 °C 30in /  1015.2hPa West 0.9mph /  1.4km/h 7mph /  11.3km/h 94% 0in /  0.0mm 0 W/m2
01:37 59.5 °F /  15.3 °C 57.7 °F /  14.3 °C 30in /  1015.2hPa West 2.9mph /  4.7km/h 8mph /  12.9km/h 94% 0in /  0.0mm 0 W/m2
01:42 59.4 °F /  15.2 °C 57.6 °F /  14.2 °C 30in /  1015.2hPa West 4mph /  6.4km/h 4mph /  6.4km/h 94% 0in /  0.0mm 0 W/m2
01:47 59.2 °F /  15.1 °C 57.4 °F /  14.1 °C 30in /  1015.2hPa WNW 4mph /  6.4km/h 8mph /  12.9km/h 94% 0in /  0.0mm 0 W/m2
01:52 58.8 °F /  14.9 °C 57 °F /  13.9 °C 30in /  1015.2hPa West 2mph /  3.2km/h 7mph /  11.3km/h 94% 0in /  0.0mm 0 W/m2
01:57 58.6 °F /  14.8 °C 56.8 °F /  13.8 °C 30in /  1015.2hPa WSW 2.9mph /  4.7km/h 4mph /  6.4km/h 94% 0in /  0.0mm 0 W/m2
02:02 58.5 °F /  14.7 °C 56.7 °F /  13.7 °C 30in /  1015.2hPa West 2mph /  3.2km/h 4mph /  6.4km/h 94% 0in /  0.0mm 0 W/m2
02:07 58.3 °F /  14.6 °C 56.5 °F /  13.6 °C 30in /  1015.6hPa WNW 4mph /  6.4km/h 6mph /  9.7km/h 94% 0in /  0.0mm 0 W/m2
02:12 58.1 °F /  14.5 °C 56.3 °F /  13.5 °C 30in /  1015.6hPa West 2mph /  3.2km/h 4mph /  6.4km/h 94% 0in /  0.0mm 0 W/m2
02:17 57.9 °F /  14.4 °C 56.1 °F /  13.4 °C 30in /  1015.6hPa West 0.9mph /  1.4km/h 4mph /  6.4km/h 94% 0in /  0.0mm 0 W/m2
02:22 57.7 °F /  14.3 °C 55.8 °F /  13.2 °C 30in /  1015.6hPa WSW 2.9mph /  4.7km/h 7mph /  11.3km/h 93% 0in /  0.0mm 0 W/m2
02:27 57.6 °F /  14.2 °C 55.8 °F /  13.2 °C 30in /  1015.6hPa WNW 2.9mph /  4.7km/h 7mph /  11.3km/h 94% 0in /  0.0mm 0 W/m2
02:32 57.4 °F /  14.1 °C 55.6 °F /  13.1 °C 30in /  1015.6hPa West 0.9mph /  1.4km/h 5mph /  8km/h 94% 0in /  0.0mm 0 W/m2
02:37 57 °F /  13.9 °C 55 °F /  12.8 °C 30in /  1015.6hPa West 2.9mph /  4.7km/h 7mph /  11.3km/h 93% 0in /  0.0mm 0 W/m2
02:42 57 °F /  13.9 °C 55.2 °F /  12.9 °C 30in /  1015.6hPa WSW 4mph /  6.4km/h 8mph /  12.9km/h 94% 0in /  0.0mm 0 W/m2
02:47 56.8 °F /  13.8 °C 55.2 °F /  12.9 °C 30in /  1015.6hPa WSW 4mph /  6.4km/h 6mph /  9.7km/h 94% 0in /  0.0mm 0 W/m2
02:52 56.8 °F /  13.8 °C 55.2 °F /  12.9 °C 30in /  1015.6hPa WNW 4mph /  6.4km/h 10mph /  16.1km/h 94% 0in /  0.0mm 0 W/m2
02:57 56.8 °F /  13.8 °C 55.2 °F /  12.9 °C 30in /  1015.6hPa WNW 2.9mph /  4.7km/h 6mph /  9.7km/h 94% 0in /  0.0mm 0 W/m2
03:02 56.7 °F /  13.7 °C 55 °F /  12.8 °C 30in /  1015.6hPa WNW 2.9mph /  4.7km/h 10mph /  16.1km/h 94% 0in /  0.0mm 0 W/m2
03:07 56.7 °F /  13.7 °C 54.7 °F /  12.6 °C 30in /  1015.2hPa West 2mph /  3.2km/h 4mph /  6.4km/h 93% 0in /  0.0mm 0 W/m2
03:12 56.5 °F /  13.6 °C 54.5 °F /  12.5 °C 30in /  1015.6hPa West 2mph /  3.2km/h 4mph /  6.4km/h 93% 0in /  0.0mm 0 W/m2
03:17 56.5 °F /  13.6 °C 54.5 °F /  12.5 °C 30in /  1015.6hPa West 0.9mph /  1.4km/h 4mph /  6.4km/h 93% 0in /  0.0mm 0 W/m2
03:22 56.3 °F /  13.5 °C 54.7 °F /  12.6 °C 30in /  1015.6hPa West 2.9mph /  4.7km/h 7mph /  11.3km/h 94% 0in /  0.0mm 0 W/m2
03:27 56.1 °F /  13.4 °C 54.5 °F /  12.5 °C 30in /  1015.2hPa West 2mph /  3.2km/h 3mph /  4.8km/h 94% 0in /  0.0mm 0 W/m2
03:32 56.1 °F /  13.4 °C 54.5 °F /  12.5 °C 30in /  1015.6hPa WNW 2mph /  3.2km/h 7mph /  11.3km/h 94% 0in /  0.0mm 0 W/m2
03:37 56.1 °F /  13.4 °C 54.5 °F /  12.5 °C 30in /  1015.6hPa West 4mph /  6.4km/h 8mph /  12.9km/h 94% 0in /  0.0mm 0 W/m2
03:42 56.1 °F /  13.4 °C 54.5 °F /  12.5 °C 30in /  1015.6hPa WNW 0.9mph /  1.4km/h 4mph /  6.4km/h 94% 0in /  0.0mm 0 W/m2
03:47 56.1 °F /  13.4 °C 54.5 °F /  12.5 °C 30in /  1015.6hPa West 2mph /  3.2km/h 4mph /  6.4km/h 94% 0in /  0.0mm 0 W/m2
03:52 56.1 °F /  13.4 °C 54.5 °F /  12.5 °C 30in /  1015.6hPa WNW 2.9mph /  4.7km/h 6mph /  9.7km/h 94% 0in /  0.0mm 0 W/m2
03:57 56.1 °F /  13.4 °C 54.5 °F /  12.5 °C 30in /  1015.6hPa WNW 2.9mph /  4.7km/h 6mph /  9.7km/h 94% 0in /  0.0mm 0 W/m2
04:02 56.3 °F /  13.5 °C 54.7 °F /  12.6 °C 30in /  1015.2hPa West 2mph /  3.2km/h 3mph /  4.8km/h 94% 0in /  0.0mm 0 W/m2
04:07 56.5 °F /  13.6 °C 54.9 °F /  12.7 °C 30in /  1015.6hPa WNW 0.9mph /  1.4km/h 5mph /  8km/h 94% 0in /  0.0mm 0 W/m2
04:12 56.5 °F /  13.6 °C 54.9 °F /  12.7 °C 30in /  1015.6hPa WNW 2mph /  3.2km/h 4mph /  6.4km/h 94% 0in /  0.0mm 0 W/m2
04:17 56.7 °F /  13.7 °C 55 °F /  12.8 °C 30in /  1015.6hPa WNW 2.9mph /  4.7km/h 6mph /  9.7km/h 94% 0in /  0.0mm 0 W/m2
04:22 56.7 °F /  13.7 °C 55 °F /  12.8 °C 30in /  1015.6hPa West 2.9mph /  4.7km/h 8mph /  12.9km/h 94% 0in /  0.0mm 0 W/m2
04:27 56.8 °F /  13.8 °C 55.2 °F /  12.9 °C 30in /  1015.6hPa WNW 2.9mph /  4.7km/h 5mph /  8km/h 94% 0in /  0.0mm 0 W/m2
04:32 56.8 °F /  13.8 °C 55.2 °F /  12.9 °C 30in /  1015.6hPa WNW 2.9mph /  4.7km/h 8mph /  12.9km/h 94% 0in /  0.0mm 0 W/m2
04:37 56.8 °F /  13.8 °C 55.2 °F /  12.9 °C 30in /  1015.9hPa West 2.9mph /  4.7km/h 5mph /  8km/h 94% 0in /  0.0mm 0 W/m2
04:42 57 °F /  13.9 °C 55 °F /  12.8 °C 30in /  1015.9hPa West 2.9mph /  4.7km/h 7mph /  11.3km/h 93% 0in /  0.0mm 0 W/m2
04:47 57 °F /  13.9 °C 55 °F /  12.8 °C 30in /  1015.9hPa NW 0.9mph /  1.4km/h 1mph /  1.6km/h 93% 0in /  0.0mm 0 W/m2
04:52 57 °F /  13.9 °C 55 °F /  12.8 °C 30in /  1016.3hPa Calm   7mph /  11.3km/h 93% 0in /  0.0mm 0 W/m2
04:57 56.8 °F /  13.8 °C 54.9 °F /  12.7 °C 30in /  1016.3hPa West 0.9mph /  1.4km/h 3mph /  4.8km/h 93% 0in /  0.0mm 0 W/m2
05:02 56.8 °F /  13.8 °C 54.9 °F /  12.7 °C 30in /  1015.9hPa West 2mph /  3.2km/h 7mph /  11.3km/h 93% 0in /  0.0mm 0 W/m2
05:07 57 °F /  13.9 °C 55.2 °F /  12.9 °C 30in /  1016.3hPa West 6.9mph /  11.1km/h 7mph /  11.3km/h 94% 0in /  0.0mm 0 W/m2
05:12 57 °F /  13.9 °C 55.2 °F /  12.9 °C 30in /  1016.3hPa SW 0.9mph /  1.4km/h 4mph /  6.4km/h 94% 0in /  0.0mm 0 W/m2
05:17 57 °F /  13.9 °C 55.2 °F /  12.9 °C 30in /  1015.9hPa WNW 0.9mph /  1.4km/h 2mph /  3.2km/h 94% 0in /  0.0mm 0 W/m2
05:22 57.2 °F /  14 °C 55.4 °F /  13 °C 30in /  1015.9hPa NW 2mph /  3.2km/h 3mph /  4.8km/h 94% 0in /  0.0mm 0 W/m2
05:27 57.4 °F /  14.1 °C 55.6 °F /  13.1 °C 30in /  1015.9hPa Calm   2mph /  3.2km/h 94% 0in /  0.0mm 0 W/m2
05:32 57.4 °F /  14.1 °C 55.6 °F /  13.1 °C 30in /  1015.9hPa WNW 0.9mph /  1.4km/h 2mph /  3.2km/h 94% 0in /  0.0mm 0 W/m2
05:37 57.4 °F /  14.1 °C 55.6 °F /  13.1 °C 30in /  1015.9hPa Calm     94% 0in /  0.0mm 0 W/m2
05:42 57.4 °F /  14.1 °C 55.6 °F /  13.1 °C 30in /  1015.9hPa Calm     94% 0in /  0.0mm 0 W/m2
05:47 57.4 °F /  14.1 °C 55.6 °F /  13.1 °C 30in /  1016.3hPa Calm     94% 0in /  0.0mm 0 W/m2
05:52 57.4 °F /  14.1 °C 55.6 °F /  13.1 °C 30in /  1016.3hPa Calm     94% 0in /  0.0mm 0 W/m2
05:57 57.4 °F /  14.1 °C 55.6 °F /  13.1 °C 30in /  1016.3hPa Calm     94% 0in /  0.0mm 0 W/m2
06:02 57.4 °F /  14.1 °C 55.6 °F /  13.1 °C 30in /  1015.9hPa Calm     94% 0in /  0.0mm 5 W/m2
06:07 57.4 °F /  14.1 °C 55.6 °F /  13.1 °C 30in /  1015.9hPa WNW 0.9mph /  1.4km/h 2mph /  3.2km/h 94% 0in /  0.0mm 11 W/m2
06:12 57.2 °F /  14 °C 55.4 °F /  13 °C 30in /  1015.9hPa Calm   2mph /  3.2km/h 94% 0in /  0.0mm 16 W/m2
06:17 57.2 °F /  14 °C 55.4 °F /  13 °C 30in /  1015.9hPa Calm     94% 0in /  0.0mm 16 W/m2
06:22 57.2 °F /  14 °C 55.8 °F /  13.2 °C 30in /  1015.9hPa Calm   1mph /  1.6km/h 95% 0in /  0.0mm 16 W/m2
06:27 57.4 °F /  14.1 °C 55.9 °F /  13.3 °C 30in /  1015.9hPa Calm     95% 0in /  0.0mm 12 W/m2
06:32 57.4 °F /  14.1 °C 55.9 °F /  13.3 °C 30in /  1015.9hPa Calm     95% 0in /  0.0mm 16 W/m2
06:37 57.4 °F /  14.1 °C 55.9 °F /  13.3 °C 30in /  1015.9hPa Calm   2mph /  3.2km/h 95% 0in /  0.0mm 14 W/m2
06:42 57.4 °F /  14.1 °C 55.9 °F /  13.3 °C 30in /  1015.9hPa Calm   1mph /  1.6km/h 95% 0in /  0.0mm 39 W/m2
06:47 57.4 °F /  14.1 °C 55.9 °F /  13.3 °C 30in /  1015.9hPa Calm   1mph /  1.6km/h 95% 0in /  0.0mm 47 W/m2
06:52 57.6 °F /  14.2 °C 56.1 °F /  13.4 °C 30in /  1015.9hPa WNW 0.9mph /  1.4km/h 3mph /  4.8km/h 95% 0in /  0.0mm 60 W/m2
06:57 57.6 °F /  14.2 °C 56.1 °F /  13.4 °C 30in /  1015.9hPa West 0.9mph /  1.4km/h 3mph /  4.8km/h 95% 0in /  0.0mm 63 W/m2
07:02 57.6 °F /  14.2 °C 56.1 °F /  13.4 °C 30in /  1015.9hPa West 2mph /  3.2km/h 4mph /  6.4km/h 95% 0in /  0.0mm 65 W/m2
07:07 57.7 °F /  14.3 °C 56.3 °F /  13.5 °C 30in /  1015.9hPa NW 2mph /  3.2km/h 4mph /  6.4km/h 95% 0in /  0.0mm 74 W/m2
07:12 57.7 °F /  14.3 °C 56.3 °F /  13.5 °C 30in /  1015.9hPa WSW 2.9mph /  4.7km/h 4mph /  6.4km/h 95% 0in /  0.0mm 69 W/m2
07:17 57.7 °F /  14.3 °C 56.3 °F /  13.5 °C 30in /  1015.9hPa NW 2.9mph /  4.7km/h 6mph /  9.7km/h 95% 0in /  0.0mm 62 W/m2
07:22 57.9 °F /  14.4 °C 56.1 °F /  13.4 °C 30in /  1016.3hPa WNW 0.9mph /  1.4km/h 3mph /  4.8km/h 94% 0in /  0.0mm 62 W/m2
07:27 57.9 °F /  14.4 °C 56.1 °F /  13.4 °C 30in /  1016.3hPa WNW 0.9mph /  1.4km/h 6mph /  9.7km/h 94% 0in /  0.0mm 63 W/m2
07:32 58.1 °F /  14.5 °C 56.3 °F /  13.5 °C 30in /  1016.3hPa NNW 2mph /  3.2km/h 2mph /  3.2km/h 94% 0in /  0.0mm 42 W/m2
07:38 57.9 °F /  14.4 °C 56.1 °F /  13.4 °C 30in /  1016.3hPa NNW 0.9mph /  1.4km/h 3mph /  4.8km/h 94% 0in /  0.0mm 40 W/m2
07:43 58.1 °F /  14.5 °C 56.3 °F /  13.5 °C 30in /  1016.3hPa NNW 2mph /  3.2km/h 4mph /  6.4km/h 94% 0in /  0.0mm 49 W/m2
07:48 58.3 °F /  14.6 °C 56.5 °F /  13.6 °C 30in /  1016.3hPa Calm   1mph /  1.6km/h 94% 0in /  0.0mm 49 W/m2
07:53 58.3 °F /  14.6 °C 56.3 °F /  13.5 °C 30in /  1016.3hPa NW 0.9mph /  1.4km/h 4mph /  6.4km/h 93% 0in /  0.0mm 63 W/m2
07:58 58.3 °F /  14.6 °C 56.3 °F /  13.5 °C 30in /  1016.3hPa WNW 0.9mph /  1.4km/h 4mph /  6.4km/h 93% 0in /  0.0mm 72 W/m2
08:03 58.5 °F /  14.7 °C 56.5 °F /  13.6 °C 30in /  1016.6hPa Calm   2mph /  3.2km/h 93% 0in /  0.0mm 90 W/m2
08:08 58.5 °F /  14.7 °C 56.5 °F /  13.6 °C 30in /  1016.6hPa Calm   3mph /  4.8km/h 93% 0in /  0.0mm 79 W/m2
08:13 58.6 °F /  14.8 °C 56.7 °F /  13.7 °C 30in /  1016.6hPa Calm     93% 0in /  0.0mm 65 W/m2
08:18 58.6 °F /  14.8 °C 56.3 °F /  13.5 °C 30in /  1016.6hPa WNW 0.9mph /  1.4km/h 3mph /  4.8km/h 92% 0in /  0.0mm 76 W/m2
08:23 58.8 °F /  14.9 °C 56.5 °F /  13.6 °C 30in /  1016.6hPa Calm   2mph /  3.2km/h 92% 0in /  0.0mm 79 W/m2
08:28 58.8 °F /  14.9 °C 56.5 °F /  13.6 °C 30in /  1016.6hPa WNW 0.9mph /  1.4km/h 3mph /  4.8km/h 92% 0in /  0.0mm 54 W/m2
08:33 59 °F /  15 °C 56.7 °F /  13.7 °C 30in /  1016.6hPa Calm   1mph /  1.6km/h 92% 0in /  0.0mm 58 W/m2
08:38 59 °F /  15 °C 56.7 °F /  13.7 °C 30in /  1016.6hPa Calm   2mph /  3.2km/h 92% 0in /  0.0mm 72 W/m2
08:43 59.2 °F /  15.1 °C 56.8 °F /  13.8 °C 30in /  1016.6hPa Calm     92% 0in /  0.0mm 109 W/m2
08:48 59.2 °F /  15.1 °C 56.8 °F /  13.8 °C 30in /  1016.6hPa Calm   1mph /  1.6km/h 92% 0in /  0.0mm 132 W/m2
08:53 59.4 °F /  15.2 °C 57 °F /  13.9 °C 30in /  1016.9hPa North 0.9mph /  1.4km/h 2mph /  3.2km/h 92% 0in /  0.0mm 100 W/m2
08:58 59.5 °F /  15.3 °C 57.2 °F /  14 °C 30in /  1016.9hPa Calm   1mph /  1.6km/h 92% 0in /  0.0mm 114 W/m2
09:03 59.7 °F /  15.4 °C 57 °F /  13.9 °C 30in /  1016.9hPa Calm     91% 0in /  0.0mm 128 W/m2
09:08 59.9 °F /  15.5 °C 57.2 °F /  14 °C 30in /  1016.9hPa West 0.9mph /  1.4km/h 2mph /  3.2km/h 91% 0in /  0.0mm 123 W/m2
09:13 60.1 °F /  15.6 °C 57.2 °F /  14 °C 30in /  1016.6hPa Calm   2mph /  3.2km/h 90% 0in /  0.0mm 111 W/m2
09:18 60.1 °F /  15.6 °C 57.2 °F /  14 °C 30in /  1016.9hPa Calm   1mph /  1.6km/h 90% 0in /  0.0mm 104 W/m2
09:23 60.1 °F /  15.6 °C 56.8 °F /  13.8 °C 30in /  1016.9hPa Calm     89% 0in /  0.0mm 97 W/m2
09:28 60.1 °F /  15.6 °C 56.8 °F /  13.8 °C 30in /  1016.9hPa Calm   1mph /  1.6km/h 89% 0in /  0.0mm 83 W/m2
09:33 60.3 °F /  15.7 °C 57.4 °F /  14.1 °C 30in /  1016.6hPa Calm   1mph /  1.6km/h 90% 0in /  0.0mm 98 W/m2
09:38 60.3 °F /  15.7 °C 57 °F /  13.9 °C 30in /  1016.6hPa Calm     89% 0in /  0.0mm 100 W/m2
09:43 60.4 °F /  15.8 °C 57.6 °F /  14.2 °C 30in /  1016.6hPa West 0.9mph /  1.4km/h 2mph /  3.2km/h 90% 0in /  0.0mm 118 W/m2
09:48 60.4 °F /  15.8 °C 57.2 °F /  14 °C 30in /  1016.9hPa Calm     89% 0in /  0.0mm 144 W/m2
09:53 60.4 °F /  15.8 °C 57.2 °F /  14 °C 30in /  1016.9hPa NE 0.9mph /  1.4km/h 2mph /  3.2km/h 89% 0in /  0.0mm 204 W/m2
09:58 60.6 °F /  15.9 °C 57.4 °F /  14.1 °C 30in /  1016.9hPa Calm   1mph /  1.6km/h 89% 0in /  0.0mm 230 W/m2
10:03 60.8 °F /  16 °C 57.6 °F /  14.2 °C 30in /  1016.9hPa Calm   2mph /  3.2km/h 89% 0in /  0.0mm 162 W/m2
10:08 61.2 °F /  16.2 °C 57.9 °F /  14.4 °C 30in /  1016.9hPa Calm   1mph /  1.6km/h 89% 0in /  0.0mm 165 W/m2
10:13 61.2 °F /  16.2 °C 57.9 °F /  14.4 °C 30in /  1016.9hPa East 2mph /  3.2km/h 2mph /  3.2km/h 89% 0in /  0.0mm 144 W/m2
10:18 61.2 °F /  16.2 °C 57.9 °F /  14.4 °C 30in /  1016.9hPa Calm   1mph /  1.6km/h 89% 0in /  0.0mm 141 W/m2
10:23 61.2 °F /  16.2 °C 58.3 °F /  14.6 °C 30in /  1016.9hPa Calm   2mph /  3.2km/h 90% 0in /  0.0mm 174 W/m2
10:28 61.3 °F /  16.3 °C 58.6 °F /  14.8 °C 30in /  1016.9hPa Calm   1mph /  1.6km/h 91% 0in /  0.0mm 199 W/m2
10:33 61.3 °F /  16.3 °C 58.6 °F /  14.8 °C 30in /  1016.9hPa Calm   2mph /  3.2km/h 91% 0in /  0.0mm 142 W/m2
10:38 61.2 °F /  16.2 °C 58.3 °F /  14.6 °C 30in /  1016.9hPa NE 0.9mph /  1.4km/h 2mph /  3.2km/h 90% 0in /  0.0mm 142 W/m2
10:43 61.2 °F /  16.2 °C 58.5 °F /  14.7 °C 30in /  1016.9hPa NE 0.9mph /  1.4km/h 2mph /  3.2km/h 91% 0in /  0.0mm 149 W/m2
10:48 61.3 °F /  16.3 °C 58.6 °F /  14.8 °C 30in /  1016.9hPa Calm   1mph /  1.6km/h 91% 0in /  0.0mm 169 W/m2
10:53 61.2 °F /  16.2 °C 58.3 °F /  14.6 °C 30in /  1016.9hPa Calm   2mph /  3.2km/h 90% 0in /  0.0mm 146 W/m2
10:58 61 °F /  16.1 °C 57.7 °F /  14.3 °C 30in /  1016.9hPa ENE 2mph /  3.2km/h 2mph /  3.2km/h 89% 0in /  0.0mm 223 W/m2
11:03 61.2 °F /  16.2 °C 57.9 °F /  14.4 °C 30in /  1016.9hPa Calm   1mph /  1.6km/h 89% 0in /  0.0mm 271 W/m2
11:08 61.5 °F /  16.4 °C 58.3 °F /  14.6 °C 30in /  1016.9hPa Calm   1mph /  1.6km/h 89% 0in /  0.0mm 278 W/m2
11:13 62.1 °F /  16.7 °C 58.8 °F /  14.9 °C 30in /  1016.9hPa Calm   2mph /  3.2km/h 89% 0in /  0.0mm 800 W/m2
11:18 62.8 °F /  17.1 °C 59.2 °F /  15.1 °C 30in /  1016.9hPa Calm   1mph /  1.6km/h 88% 0in /  0.0mm 853 W/m2
11:23 63.3 °F /  17.4 °C 59 °F /  15 °C 30in /  1016.9hPa NNW 2mph /  3.2km/h 3mph /  4.8km/h 86% 0in /  0.0mm 837 W/m2
11:28 64 °F /  17.8 °C 59.4 °F /  15.2 °C 30in /  1016.9hPa Calm   3mph /  4.8km/h 85% 0in /  0.0mm 308 W/m2
11:33 64.6 °F /  18.1 °C 59.4 °F /  15.2 °C 30in /  1016.9hPa Calm   1mph /  1.6km/h 83% 0in /  0.0mm 258 W/m2
11:39 64.9 °F /  18.3 °C 59.4 °F /  15.2 °C 30in /  1016.9hPa West 0.9mph /  1.4km/h 2mph /  3.2km/h 82% 0in /  0.0mm 271 W/m2
11:44 64.9 °F /  18.3 °C 59.4 °F /  15.2 °C 30in /  1016.9hPa Calm     82% 0in /  0.0mm 246 W/m2
11:49 64.9 °F /  18.3 °C 59.4 °F /  15.2 °C 30in /  1016.9hPa Calm   1mph /  1.6km/h 82% 0in /  0.0mm 308 W/m2
11:54 65.1 °F /  18.4 °C 60.1 °F /  15.6 °C 30in /  1016.9hPa Calm   2mph /  3.2km/h 84% 0in /  0.0mm 339 W/m2
11:59 65.1 °F /  18.4 °C 59.9 °F /  15.5 °C 30in /  1016.9hPa West 0.9mph /  1.4km/h 2mph /  3.2km/h 83% 0in /  0.0mm 341 W/m2
12:04 65.1 °F /  18.4 °C 59.5 °F /  15.3 °C 30in /  1016.9hPa West 2mph /  3.2km/h 2mph /  3.2km/h 82% 0in /  0.0mm 461 W/m2
12:09 65.5 °F /  18.6 °C 59.9 °F /  15.5 °C 30in /  1016.9hPa West 0.9mph /  1.4km/h 4mph /  6.4km/h 82% 0in /  0.0mm 454 W/m2
12:14 65.5 °F /  18.6 °C 59.9 °F /  15.5 °C 30in /  1016.9hPa WNW 2mph /  3.2km/h 2mph /  3.2km/h 82% 0in /  0.0mm 536 W/m2
12:19 65.5 °F /  18.6 °C 58.5 °F /  14.7 °C 30in /  1016.9hPa ESE 2mph /  3.2km/h 7mph /  11.3km/h 78% 0in /  0.0mm 526 W/m2
12:24 65.8 °F /  18.8 °C 59.2 °F /  15.1 °C 30in /  1016.9hPa West 2.9mph /  4.7km/h 7mph /  11.3km/h 79% 0in /  0.0mm 517 W/m2
12:29 65.8 °F /  18.8 °C 59.5 °F /  15.3 °C 30in /  1016.9hPa NW 0.9mph /  1.4km/h 4mph /  6.4km/h 80% 0in /  0.0mm 461 W/m2
12:34 66 °F /  18.9 °C 59.4 °F /  15.2 °C 30in /  1016.9hPa West 0.9mph /  1.4km/h 7mph /  11.3km/h 79% 0in /  0.0mm 441 W/m2
12:39 66.4 °F /  19.1 °C 59.7 °F /  15.4 °C 30in /  1016.9hPa West 2mph /  3.2km/h 3mph /  4.8km/h 79% 0in /  0.0mm 397 W/m2
12:44 66.4 °F /  19.1 °C 59.7 °F /  15.4 °C 30in /  1016.9hPa WSW 2mph /  3.2km/h 3mph /  4.8km/h 79% 0in /  0.0mm 417 W/m2
12:49 66.7 °F /  19.3 °C 59.4 °F /  15.2 °C 30in /  1016.9hPa West 0.9mph /  1.4km/h 2mph /  3.2km/h 77% 0in /  0.0mm 536 W/m2
12:54 67.1 °F /  19.5 °C 60.1 °F /  15.6 °C 30in /  1016.9hPa West 0.9mph /  1.4km/h 3mph /  4.8km/h 78% 0in /  0.0mm 439 W/m2
12:59 67.8 °F /  19.9 °C 59.9 °F /  15.5 °C 30in /  1016.6hPa ENE 0.9mph /  1.4km/h 4mph /  6.4km/h 76% 0in /  0.0mm 1222 W/m2
13:04 68.4 °F /  20.2 °C 60.4 °F /  15.8 °C 30in /  1016.6hPa East 4mph /  6.4km/h 4mph /  6.4km/h 76% 0in /  0.0mm 1137 W/m2
13:09 68.4 °F /  20.2 °C 59.7 °F /  15.4 °C 30in /  1016.6hPa ENE 2mph /  3.2km/h 3mph /  4.8km/h 74% 0in /  0.0mm 332 W/m2
13:14 68.5 °F /  20.3 °C 60.3 °F /  15.7 °C 30in /  1016.6hPa West 2.9mph /  4.7km/h 7mph /  11.3km/h 75% 0in /  0.0mm 292 W/m2
13:19 68.2 °F /  20.1 °C 59.9 °F /  15.5 °C 30in /  1016.6hPa WNW 4.9mph /  7.9km/h 5mph /  8km/h 75% 0in /  0.0mm 381 W/m2
13:24 68.2 °F /  20.1 °C 59.9 °F /  15.5 °C 30in /  1016.6hPa WNW 0.9mph /  1.4km/h 3mph /  4.8km/h 75% 0in /  0.0mm 431 W/m2
13:29 68.4 °F /  20.2 °C 60.4 °F /  15.8 °C 30in /  1016.6hPa WNW 2mph /  3.2km/h 5mph /  8km/h 76% 0in /  0.0mm 803 W/m2
13:34 68.7 °F /  20.4 °C 58.1 °F /  14.5 °C 30in /  1016.6hPa NW 0.9mph /  1.4km/h 4mph /  6.4km/h 69% 0in /  0.0mm 803 W/m2
13:39 69.3 °F /  20.7 °C 59.5 °F /  15.3 °C 30in /  1016.3hPa WNW 0.9mph /  1.4km/h 4mph /  6.4km/h 71% 0in /  0.0mm 1071 W/m2
13:44 69.6 °F /  20.9 °C 59.4 °F /  15.2 °C 30in /  1016.3hPa WSW 0.9mph /  1.4km/h 1mph /  1.6km/h 70% 0in /  0.0mm 963 W/m2
13:49 70.2 °F /  21.2 °C 58.3 °F /  14.6 °C 30in /  1016.3hPa WSW 2.9mph /  4.7km/h 4mph /  6.4km/h 66% 0in /  0.0mm 951 W/m2
13:54 70.2 °F /  21.2 °C 58.3 °F /  14.6 °C 30in /  1016.3hPa North 2.9mph /  4.7km/h 6mph /  9.7km/h 66% 0in /  0.0mm 970 W/m2
13:59 70.2 °F /  21.2 °C 59.5 °F /  15.3 °C 30in /  1016.3hPa NW 2mph /  3.2km/h 4mph /  6.4km/h 69% 0in /  0.0mm 984 W/m2
14:04 70.3 °F /  21.3 °C 60.4 °F /  15.8 °C 30in /  1016.3hPa WSW 2mph /  3.2km/h 6mph /  9.7km/h 71% 0in /  0.0mm 977 W/m2
14:09 70.3 °F /  21.3 °C 58.1 °F /  14.5 °C 30in /  1016.3hPa WNW 4mph /  6.4km/h 6mph /  9.7km/h 65% 0in /  0.0mm 1034 W/m2
14:14 70.5 °F /  21.4 °C 58.1 °F /  14.5 °C 30in /  1016.3hPa West 2.9mph /  4.7km/h 5mph /  8km/h 65% 0in /  0.0mm 984 W/m2
14:19 71.1 °F /  21.7 °C 57.7 °F /  14.3 °C 30in /  1016.3hPa Calm   4mph /  6.4km/h 63% 0in /  0.0mm 979 W/m2
14:24 71.1 °F /  21.7 °C 58.6 °F /  14.8 °C 30in /  1016.3hPa NNW 2mph /  3.2km/h 4mph /  6.4km/h 65% 0in /  0.0mm 983 W/m2
14:29 70.9 °F /  21.6 °C 60.3 °F /  15.7 °C 30in /  1016.3hPa WSW 2mph /  3.2km/h 3mph /  4.8km/h 69% 0in /  0.0mm 997 W/m2
14:34 71.2 °F /  21.8 °C 59.4 °F /  15.2 °C 30in /  1015.9hPa SSW 2mph /  3.2km/h 4mph /  6.4km/h 66% 0in /  0.0mm 1025 W/m2
14:39 71.6 °F /  22 °C 58.8 °F /  14.9 °C 30in /  1015.9hPa NW 2mph /  3.2km/h 5mph /  8km/h 64% 0in /  0.0mm 1041 W/m2
14:44 72.1 °F /  22.3 °C 59.7 °F /  15.4 °C 30in /  1015.9hPa West 2mph /  3.2km/h 4mph /  6.4km/h 65% 0in /  0.0mm 1060 W/m2
14:49 72.7 °F /  22.6 °C 59.4 °F /  15.2 °C 30in /  1015.9hPa SW 4.9mph /  7.9km/h 5mph /  8km/h 63% 0in /  0.0mm 1013 W/m2
14:54 72.7 °F /  22.6 °C 58.8 °F /  14.9 °C 30in /  1015.9hPa Calm   3mph /  4.8km/h 62% 0in /  0.0mm 1005 W/m2
14:59 72.5 °F /  22.5 °C 57.4 °F /  14.1 °C 30in /  1015.9hPa Calm   4mph /  6.4km/h 59% 0in /  0.0mm 1039 W/m2
15:04 72.5 °F /  22.5 °C 58.8 °F /  14.9 °C 30in /  1015.9hPa WNW 2mph /  3.2km/h 7mph /  11.3km/h 62% 0in /  0.0mm 988 W/m2
15:09 72.9 °F /  22.7 °C 59.9 °F /  15.5 °C 30in /  1015.6hPa WNW 4.9mph /  7.9km/h 5mph /  8km/h 64% 0in /  0.0mm 1005 W/m2
15:14 73.2 °F /  22.9 °C 59.4 °F /  15.2 °C 30in /  1015.9hPa West 2.9mph /  4.7km/h 5mph /  8km/h 62% 0in /  0.0mm 1005 W/m2
15:19 73.2 °F /  22.9 °C 59 °F /  15 °C 30in /  1015.6hPa WNW 2mph /  3.2km/h 5mph /  8km/h 61% 0in /  0.0mm 1028 W/m2
15:24 73 °F /  22.8 °C 61 °F /  16.1 °C 30in /  1015.9hPa Calm   2mph /  3.2km/h 66% 0in /  0.0mm 216 W/m2
15:29 72.7 °F /  22.6 °C 58.8 °F /  14.9 °C 30in /  1015.9hPa Calm   3mph /  4.8km/h 62% 0in /  0.0mm 195 W/m2
15:34 72.3 °F /  22.4 °C 58.6 °F /  14.8 °C 30in /  1015.9hPa Calm   1mph /  1.6km/h 62% 0in /  0.0mm 246 W/m2
15:39 72.1 °F /  22.3 °C 58.5 °F /  14.7 °C 30in /  1015.6hPa West 2mph /  3.2km/h 2mph /  3.2km/h 62% 0in /  0.0mm 241 W/m2
15:44 71.8 °F /  22.1 °C 58.1 °F /  14.5 °C 30in /  1015.6hPa Calm   1mph /  1.6km/h 62% 0in /  0.0mm 262 W/m2
15:49 71.8 °F /  22.1 °C 59.4 °F /  15.2 °C 30in /  1015.6hPa NW 4mph /  6.4km/h 7mph /  11.3km/h 65% 0in /  0.0mm 352 W/m2
15:54 72.1 °F /  22.3 °C 58.5 °F /  14.7 °C 30in /  1015.6hPa NW 0.9mph /  1.4km/h 4mph /  6.4km/h 62% 0in /  0.0mm 1028 W/m2
15:59 72.9 °F /  22.7 °C 59 °F /  15 °C 30in /  1015.6hPa WSW 2.9mph /  4.7km/h 6mph /  9.7km/h 62% 0in /  0.0mm 1011 W/m2
16:04 73 °F /  22.8 °C 59.7 °F /  15.4 °C 30in /  1015.6hPa WSW 2.9mph /  4.7km/h 4mph /  6.4km/h 63% 0in /  0.0mm 250 W/m2
16:09 72.9 °F /  22.7 °C 59 °F /  15 °C 30in /  1015.6hPa Calm   3mph /  4.8km/h 62% 0in /  0.0mm 257 W/m2
16:14 72.7 °F /  22.6 °C 59.4 °F /  15.2 °C 30in /  1015.2hPa WNW 0.9mph /  1.4km/h 3mph /  4.8km/h 63% 0in /  0.0mm 260 W/m2
16:19 72.3 °F /  22.4 °C 59.5 °F /  15.3 °C 30in /  1015.2hPa WSW 0.9mph /  1.4km/h 3mph /  4.8km/h 64% 0in /  0.0mm 248 W/m2
16:24 72.1 °F /  22.3 °C 59.7 °F /  15.4 °C 30in /  1015.2hPa WSW 0.9mph /  1.4km/h 3mph /  4.8km/h 65% 0in /  0.0mm 246 W/m2
16:29 72 °F /  22.2 °C 59.5 °F /  15.3 °C 30in /  1015.2hPa Calm   1mph /  1.6km/h 65% 0in /  0.0mm 244 W/m2
16:34 72 °F /  22.2 °C 59.5 °F /  15.3 °C 30in /  1015.2hPa West 2mph /  3.2km/h 3mph /  4.8km/h 65% 0in /  0.0mm 237 W/m2
16:39 71.8 °F /  22.1 °C 59.7 °F /  15.4 °C 30in /  1015.2hPa WSW 0.9mph /  1.4km/h 2mph /  3.2km/h 66% 0in /  0.0mm 236 W/m2
16:44 71.8 °F /  22.1 °C 60.6 °F /  15.9 °C 30in /  1015.2hPa SW 0.9mph /  1.4km/h 3mph /  4.8km/h 68% 0in /  0.0mm 234 W/m2
16:49 71.6 °F /  22 °C 60.1 °F /  15.6 °C 30in /  1015.2hPa ENE 2mph /  3.2km/h 3mph /  4.8km/h 67% 0in /  0.0mm 241 W/m2
16:54 71.4 °F /  21.9 °C 59 °F /  15 °C 30in /  1015.2hPa NE 0.9mph /  1.4km/h 1mph /  1.6km/h 65% 0in /  0.0mm 253 W/m2
16:59 71.6 °F /  22 °C 59.7 °F /  15.4 °C 30in /  1014.9hPa Calm   2mph /  3.2km/h 66% 0in /  0.0mm 316 W/m2
17:04 71.8 °F /  22.1 °C 59.7 °F /  15.4 °C 30in /  1014.9hPa East 2mph /  3.2km/h 2mph /  3.2km/h 66% 0in /  0.0mm 357 W/m2
17:09 72 °F /  22.2 °C 59.5 °F /  15.3 °C 30in /  1014.9hPa East 0.9mph /  1.4km/h 4mph /  6.4km/h 65% 0in /  0.0mm 425 W/m2
17:14 72.3 °F /  22.4 °C 59.5 °F /  15.3 °C 30in /  1014.9hPa East 2mph /  3.2km/h 4mph /  6.4km/h 64% 0in /  0.0mm 610 W/m2
17:19 72.7 °F /  22.6 °C 59.7 °F /  15.4 °C 30in /  1014.9hPa NNW 2mph /  3.2km/h 2mph /  3.2km/h 64% 0in /  0.0mm 466 W/m2
17:24 73.4 °F /  23 °C 59.5 °F /  15.3 °C 30in /  1014.9hPa WSW 2mph /  3.2km/h 4mph /  6.4km/h 62% 0in /  0.0mm 998 W/m2
17:29 73.6 °F /  23.1 °C 59.7 °F /  15.4 °C 30in /  1014.6hPa SSE 0.9mph /  1.4km/h 2mph /  3.2km/h 62% 0in /  0.0mm 487 W/m2
17:34 73.9 °F /  23.3 °C 59.2 °F /  15.1 °C 30in /  1014.6hPa Calm   1mph /  1.6km/h 60% 0in /  0.0mm 698 W/m2
17:39 74.7 °F /  23.7 °C 59.4 °F /  15.2 °C 30in /  1014.6hPa ESE 2mph /  3.2km/h 4mph /  6.4km/h 59% 0in /  0.0mm 824 W/m2
17:44 75 °F /  23.9 °C 58.8 °F /  14.9 °C 30in /  1014.6hPa Calm   1mph /  1.6km/h 57% 0in /  0.0mm 631 W/m2
17:49 75 °F /  23.9 °C 59.2 °F /  15.1 °C 30in /  1014.6hPa Calm   2mph /  3.2km/h 58% 0in /  0.0mm 218 W/m2
17:54 74.8 °F /  23.8 °C 59 °F /  15 °C 30in /  1014.6hPa Calm   1mph /  1.6km/h 58% 0in /  0.0mm 167 W/m2
17:59 74.5 °F /  23.6 °C 59.7 °F /  15.4 °C 30in /  1014.6hPa Calm   3mph /  4.8km/h 60% 0in /  0.0mm 137 W/m2
18:04 74.1 °F /  23.4 °C 60.8 °F /  16 °C 30in /  1014.2hPa Calm     63% 0in /  0.0mm 193 W/m2
18:09 74.1 °F /  23.4 °C 58.8 °F /  14.9 °C 30in /  1014.2hPa NE 0.9mph /  1.4km/h 3mph /  4.8km/h 59% 0in /  0.0mm 476 W/m2
18:14 74.7 °F /  23.7 °C 59.9 °F /  15.5 °C 30in /  1014.2hPa WNW 0.9mph /  1.4km/h 2mph /  3.2km/h 60% 0in /  0.0mm 420 W/m2
18:19 75 °F /  23.9 °C 59.7 °F /  15.4 °C 30in /  1014.2hPa Calm   1mph /  1.6km/h 59% 0in /  0.0mm 383 W/m2
18:24 75.4 °F /  24.1 °C 59.5 °F /  15.3 °C 30in /  1014.2hPa ENE 0.9mph /  1.4km/h 2mph /  3.2km/h 58% 0in /  0.0mm 267 W/m2
18:29 75.4 °F /  24.1 °C 60.1 °F /  15.6 °C 30in /  1014.2hPa ENE 0.9mph /  1.4km/h 1mph /  1.6km/h 59% 0in /  0.0mm 461 W/m2
18:34 75.6 °F /  24.2 °C 59.7 °F /  15.4 °C 30in /  1014.2hPa ESE 2mph /  3.2km/h 2mph /  3.2km/h 58% 0in /  0.0mm 446 W/m2
18:39 75.7 °F /  24.3 °C 60.8 °F /  16 °C 30in /  1014.2hPa South 0.9mph /  1.4km/h 4mph /  6.4km/h 60% 0in /  0.0mm 408 W/m2
18:44 75.9 °F /  24.4 °C 60.1 °F /  15.6 °C 30in /  1014.2hPa ENE 2mph /  3.2km/h 2mph /  3.2km/h 58% 0in /  0.0mm 362 W/m2
18:49 75.6 °F /  24.2 °C 59.2 °F /  15.1 °C 29.9in /  1013.9hPa Calm   2mph /  3.2km/h 57% 0in /  0.0mm 301 W/m2
18:54 75 °F /  23.9 °C 60.6 °F /  15.9 °C 30in /  1014.2hPa Calm   1mph /  1.6km/h 61% 0in /  0.0mm 332 W/m2
18:59 75.4 °F /  24.1 °C 61 °F /  16.1 °C 30in /  1014.2hPa Calm   1mph /  1.6km/h 61% 0in /  0.0mm 146 W/m2
19:04 75.4 °F /  24.1 °C 59.5 °F /  15.3 °C 30in /  1014.2hPa WNW 0.9mph /  1.4km/h 2mph /  3.2km/h 58% 0in /  0.0mm 197 W/m2
19:09 75 °F /  23.9 °C 59.2 °F /  15.1 °C 29.9in /  1013.9hPa West 0.9mph /  1.4km/h 2mph /  3.2km/h 58% 0in /  0.0mm 229 W/m2
19:15 74.8 °F /  23.8 °C 59.5 °F /  15.3 °C 29.9in /  1013.9hPa Calm   1mph /  1.6km/h 59% 0in /  0.0mm 237 W/m2
19:20 75 °F /  23.9 °C 60.3 °F /  15.7 °C 29.9in /  1013.9hPa Calm   2mph /  3.2km/h 60% 0in /  0.0mm 155 W/m2
19:25 75 °F /  23.9 °C 61.5 °F /  16.4 °C 29.9in /  1013.9hPa Calm   1mph /  1.6km/h 63% 0in /  0.0mm 128 W/m2
19:30 74.8 °F /  23.8 °C 61.3 °F /  16.3 °C 29.9in /  1013.9hPa Calm     63% 0in /  0.0mm 93 W/m2
19:35 74.1 °F /  23.4 °C 62.1 °F /  16.7 °C 29.9in /  1013.9hPa Calm     66% 0in /  0.0mm 83 W/m2
19:40 73.8 °F /  23.2 °C 62.1 °F /  16.7 °C 29.9in /  1013.9hPa Calm     67% 0in /  0.0mm 81 W/m2
19:45 73.2 °F /  22.9 °C 62.1 °F /  16.7 °C 29.9in /  1013.9hPa Calm     68% 0in /  0.0mm 81 W/m2
19:50 72.7 °F /  22.6 °C 61.9 °F /  16.6 °C 29.9in /  1013.9hPa Calm     69% 0in /  0.0mm 83 W/m2
19:55 72.1 °F /  22.3 °C 61.9 °F /  16.6 °C 29.9in /  1013.9hPa Calm     70% 0in /  0.0mm 86 W/m2
20:00 71.8 °F /  22.1 °C 61.9 °F /  16.6 °C 29.9in /  1013.9hPa Calm     71% 0in /  0.0mm 77 W/m2
20:05 71.2 °F /  21.8 °C 61.7 °F /  16.5 °C 29.9in /  1013.9hPa Calm     72% 0in /  0.0mm 72 W/m2
20:10 70.9 °F /  21.6 °C 61.9 °F /  16.6 °C 29.9in /  1013.9hPa Calm     73% 0in /  0.0mm 69 W/m2
20:15 70.5 °F /  21.4 °C 61.5 °F /  16.4 °C 29.9in /  1013.9hPa Calm     73% 0in /  0.0mm 67 W/m2
20:20 70.2 °F /  21.2 °C 61.2 °F /  16.2 °C 29.9in /  1013.9hPa Calm     73% 0in /  0.0mm 62 W/m2
20:25 69.8 °F /  21 °C 60.8 °F /  16 °C 29.9in /  1013.9hPa Calm     73% 0in /  0.0mm 56 W/m2
20:30 69.6 °F /  20.9 °C 61 °F /  16.1 °C 29.9in /  1013.5hPa SW 0.9mph /  1.4km/h 1mph /  1.6km/h 74% 0in /  0.0mm 54 W/m2
20:35 69.3 °F /  20.7 °C 60.6 °F /  15.9 °C 29.9in /  1013.5hPa Calm   2mph /  3.2km/h 74% 0in /  0.0mm 74 W/m2
20:40 69.3 °F /  20.7 °C 61 °F /  16.1 °C 29.9in /  1013.5hPa Calm     75% 0in /  0.0mm 76 W/m2
20:45 69.3 °F /  20.7 °C 60.6 °F /  15.9 °C 29.9in /  1013.5hPa Calm     74% 0in /  0.0mm 67 W/m2
20:50 69.4 °F /  20.8 °C 60.8 °F /  16 °C 29.9in /  1013.5hPa Calm     74% 0in /  0.0mm 51 W/m2
20:55 69.6 °F /  20.9 °C 61 °F /  16.1 °C 29.9in /  1013.5hPa Calm     74% 0in /  0.0mm 39 W/m2
21:00 69.6 °F /  20.9 °C 60.6 °F /  15.9 °C 29.9in /  1013.5hPa Calm     73% 0in /  0.0mm 35 W/m2
21:05 69.4 °F /  20.8 °C 60.1 °F /  15.6 °C 29.9in /  1013.5hPa Calm     72% 0in /  0.0mm 32 W/m2
21:15 69.1 °F /  20.6 °C 60.1 °F /  15.6 °C 29.9in /  1013.5hPa Calm     73% 0in /  0.0mm 21 W/m2
21:20 68.7 °F /  20.4 °C 59.4 °F /  15.2 °C 29.9in /  1013.5hPa Calm     72% 0in /  0.0mm 19 W/m2
21:25 68.2 °F /  20.1 °C 59.2 °F /  15.1 °C 29.9in /  1013.5hPa Calm     73% 0in /  0.0mm 14 W/m2
21:30 67.6 °F /  19.8 °C 59 °F /  15 °C 29.9in /  1013.5hPa Calm     74% 0in /  0.0mm 9 W/m2
21:35 67.3 °F /  19.6 °C 59 °F /  15 °C 29.9in /  1013.5hPa Calm     75% 0in /  0.0mm 5 W/m2
21:40 66.7 °F /  19.3 °C 58.6 °F /  14.8 °C 29.9in /  1013.5hPa Calm     75% 0in /  0.0mm 0 W/m2
21:45 66.4 °F /  19.1 °C 58.6 °F /  14.8 °C 29.9in /  1013.5hPa Calm     76% 0in /  0.0mm 0 W/m2
21:50 66 °F /  18.9 °C 58.3 °F /  14.6 °C 29.9in /  1013.5hPa Calm     76% 0in /  0.0mm 0 W/m2
21:55 65.8 °F /  18.8 °C 58.5 °F /  14.7 °C 29.9in /  1013.5hPa Calm     77% 0in /  0.0mm 0 W/m2
22:00 65.5 °F /  18.6 °C 58.5 °F /  14.7 °C 29.9in /  1013.5hPa Calm     78% 0in /  0.0mm 0 W/m2
22:05 64.9 °F /  18.3 °C 58.3 °F /  14.6 °C 29.9in /  1013.5hPa Calm     79% 0in /  0.0mm 0 W/m2
22:10 64.8 °F /  18.2 °C 58.5 °F /  14.7 °C 29.9in /  1013.5hPa Calm     80% 0in /  0.0mm 0 W/m2
22:15 64.4 °F /  18 °C 58.8 °F /  14.9 °C 29.9in /  1013.5hPa Calm     82% 0in /  0.0mm 0 W/m2
22:20 64 °F /  17.8 °C 58.8 °F /  14.9 °C 29.9in /  1013.9hPa Calm     83% 0in /  0.0mm 0 W/m2
22:25 63.9 °F /  17.7 °C 58.6 °F /  14.8 °C 29.9in /  1013.5hPa Calm     83% 0in /  0.0mm 0 W/m2
22:31 63.7 °F /  17.6 °C 58.8 °F /  14.9 °C 29.9in /  1013.5hPa Calm     84% 0in /  0.0mm 0 W/m2
22:36 63.3 °F /  17.4 °C 58.5 °F /  14.7 °C 29.9in /  1013.9hPa Calm     84% 0in /  0.0mm 0 W/m2
22:41 63.3 °F /  17.4 °C 58.8 °F /  14.9 °C 29.9in /  1013.5hPa Calm     85% 0in /  0.0mm 0 W/m2
22:46 63 °F /  17.2 °C 58.5 °F /  14.7 °C 29.9in /  1013.5hPa Calm     85% 0in /  0.0mm 0 W/m2
22:51 62.8 °F /  17.1 °C 58.3 °F /  14.6 °C 29.9in /  1013.5hPa Calm     85% 0in /  0.0mm 0 W/m2
22:56 62.6 °F /  17 °C 58.3 °F /  14.6 °C 29.9in /  1013.5hPa Calm     86% 0in /  0.0mm 0 W/m2
23:01 62.4 °F /  16.9 °C 58.1 °F /  14.5 °C 29.9in /  1013.5hPa Calm     86% 0in /  0.0mm 0 W/m2
23:06 62.2 °F /  16.8 °C 57.9 °F /  14.4 °C 29.9in /  1013.5hPa Calm     86% 0in /  0.0mm 0 W/m2
23:11 62.2 °F /  16.8 °C 58.3 °F /  14.6 °C 29.9in /  1013.5hPa Calm     87% 0in /  0.0mm 0 W/m2
23:16 62.1 °F /  16.7 °C 58.5 °F /  14.7 °C 29.9in /  1013.5hPa Calm     88% 0in /  0.0mm 0 W/m2
23:21 62.1 °F /  16.7 °C 58.1 °F /  14.5 °C 29.9in /  1013.5hPa Calm     87% 0in /  0.0mm 0 W/m2
23:26 61.9 °F /  16.6 °C 58.3 °F /  14.6 °C 29.9in /  1013.2hPa Calm     88% 0in /  0.0mm 0 W/m2
23:31 61.7 °F /  16.5 °C 58.1 °F /  14.5 °C 29.9in /  1013.2hPa Calm     88% 0in /  0.0mm 0 W/m2
23:36 61.5 °F /  16.4 °C 58.3 °F /  14.6 °C 29.9in /  1013.2hPa Calm     89% 0in /  0.0mm 0 W/m2
23:41 61.3 °F /  16.3 °C 58.1 °F /  14.5 °C 29.9in /  1013.2hPa Calm     89% 0in /  0.0mm 0 W/m2
23:46 61.2 °F /  16.2 °C 57.9 °F /  14.4 °C 29.9in /  1013.2hPa Calm     89% 0in /  0.0mm 0 W/m2
23:51 61.2 °F /  16.2 °C 57.9 °F /  14.4 °C 29.9in /  1013.2hPa Calm     89% 0in /  0.0mm 0 W/m2
23:56 61 °F /  16.1 °C 57.7 °F /  14.3 °C 29.9in /  1013.2hPa Calm     89% 0in /  0.0mm 0 W/m2
Juneau County Weather
Compliments of Weather Underground - 4 mb